Time;durP1;ratioP1;P1;durP2;ratioP2;P2;SDS_P1;SDS_P2;PMS_P1;PMS_P2;Temp;Humidity;BMP_temperature;BMP_pressure;BME280_temperature;BME280_humidity;BME280_pressure;Samples;Min_cycle;Max_cycle;Signal;HPM_P1;HPM_P2
2023/11/14 00:00:53;;;;;;;21.43;12.27;;;;;21.70;99113.00;;;;2072667;28;20240;-64
2023/11/14 00:01:54;;;;;;;20.90;12.33;;;;;21.70;99126.00;;;;2070848;28;20218;-64
2023/11/14 00:02:55;;;;;;;20.40;11.73;;;;;21.70;99145.00;;;;2071650;28;20743;-64
2023/11/14 00:03:55;;;;;;;21.90;11.23;;;;;21.60;99128.00;;;;2061078;28;20472;-64
2023/11/14 00:04:56;;;;;;;23.70;11.87;;;;;21.70;99136.00;;;;2069491;28;20221;-64
2023/11/14 00:05:56;;;;;;;20.17;10.10;;;;;21.60;99144.00;;;;2071735;28;20214;-64
2023/11/14 00:06:56;;;;;;;18.30;10.77;;;;;21.60;99139.00;;;;2071034;28;20202;-64
2023/11/14 00:07:57;;;;;;;18.30;10.00;;;;;21.60;99125.00;;;;2064880;28;20214;-64
2023/11/14 00:08:57;;;;;;;15.93;9.03;;;;;21.60;99127.00;;;;2068652;28;20731;-64
2023/11/14 00:09:57;;;;;;;17.20;9.97;;;;;21.60;99142.00;;;;2072085;28;20646;-64
2023/11/14 00:10:58;;;;;;;21.10;10.60;;;;;21.60;99152.00;;;;2071538;28;20689;-64
2023/11/14 00:11:58;;;;;;;18.53;9.83;;;;;21.60;99145.00;;;;2069940;28;20218;-64
2023/11/14 00:12:58;;;;;;;18.60;10.20;;;;;21.60;99138.00;;;;2062908;28;20569;-64
2023/11/14 00:13:59;;;;;;;15.97;8.77;;;;;21.50;99146.00;;;;2071029;28;20214;-64
2023/11/14 00:14:59;;;;;;;21.50;9.73;;;;;21.50;99155.00;;;;2072352;28;20294;-64
2023/11/14 00:16:00;;;;;;;15.93;9.83;;;;;21.50;99147.00;;;;2071224;28;20229;-64
2023/11/14 00:17:00;;;;;;;17.00;9.03;;;;;21.50;99147.00;;;;2066244;28;20210;-64
2023/11/14 00:18:01;;;;;;;16.70;9.17;;;;;21.50;99167.00;;;;2061982;28;20249;-64
2023/11/14 00:19:02;;;;;;;19.25;9.52;;;;;21.50;99149.00;;;;2072407;28;20698;-64
2023/11/14 00:20:06;;;;;;;16.57;9.20;;;;;21.50;99139.00;;;;2070781;28;20214;-64
2023/11/14 00:21:06;;;;;;;23.33;8.82;;;;;21.50;99150.00;;;;2071656;28;20221;-64
2023/11/14 00:22:10;;;;;;;16.20;8.77;;;;;21.50;99134.00;;;;2069919;28;20296;-64
2023/11/14 00:23:11;;;;;;;18.25;8.75;;;;;21.40;99129.00;;;;2060988;28;20202;-64
2023/11/14 00:24:11;;;;;;;14.03;8.33;;;;;21.50;99134.00;;;;2070650;28;20225;-64
2023/11/14 00:25:12;;;;;;;14.30;7.23;;;;;21.50;99147.00;;;;2071445;28;20249;-64
2023/11/14 00:26:12;;;;;;;18.47;8.20;;;;;21.50;99142.00;;;;2072295;28;20230;-64
2023/11/14 00:27:12;;;;;;;18.80;8.00;;;;;21.50;99137.00;;;;2072381;28;20222;-64
2023/11/14 00:28:12;;;;;;;19.53;8.37;;;;;21.50;99148.00;;;;2062025;28;20222;-64
2023/11/14 00:29:13;;;;;;;14.00;7.23;;;;;21.50;99120.00;;;;2071212;28;20229;-64
2023/11/14 00:30:13;;;;;;;14.40;7.17;;;;;21.40;99132.00;;;;2069934;28;20217;-64
2023/11/14 00:31:15;;;;;;;19.10;7.70;;;;;21.40;99145.00;;;;2072333;28;20218;-64
2023/11/14 00:32:15;;;;;;;16.48;7.10;;;;;21.40;99152.00;;;;2067328;28;20546;-64
2023/11/14 00:33:15;;;;;;;16.20;7.83;;;;;21.50;99149.00;;;;2062815;28;20232;-64
2023/11/14 00:34:16;;;;;;;17.53;7.20;;;;;21.40;99136.00;;;;2072141;28;20214;-64
2023/11/14 00:35:17;;;;;;;12.80;7.17;;;;;21.40;99146.00;;;;2068492;28;20249;-64
2023/11/14 00:36:18;;;;;;;16.43;8.33;;;;;21.40;99147.00;;;;2071281;28;20321;-64
2023/11/14 00:37:18;;;;;;;13.07;6.75;;;;;21.40;99147.00;;;;2071223;28;20230;-64
2023/11/14 00:38:18;;;;;;;12.93;6.60;;;;;21.40;99151.00;;;;2059674;28;20237;-64
2023/11/14 00:39:19;;;;;;;14.57;7.00;;;;;21.40;99148.00;;;;2070616;28;20214;-64
2023/11/14 00:40:19;;;;;;;18.80;8.17;;;;;21.40;99155.00;;;;2071944;28;20221;-64
2023/11/14 00:41:20;;;;;;;13.70;7.00;;;;;21.40;99151.00;;;;2072164;28;20215;-64
2023/11/14 00:42:20;;;;;;;10.63;7.60;;;;;21.30;99164.00;;;;2070700;28;20217;-64
2023/11/14 00:43:21;;;;;;;10.53;6.00;;;;;21.40;99141.00;;;;2061779;28;20302;-64
2023/11/14 00:44:21;;;;;;;12.73;6.80;;;;;21.40;99146.00;;;;2071231;28;20727;-64
2023/11/14 00:45:22;;;;;;;12.53;6.83;;;;;21.40;99151.00;;;;2070292;28;20222;-65
2023/11/14 00:46:23;;;;;;;17.53;7.10;;;;;21.40;99145.00;;;;2071535;28;20229;-65
2023/11/14 00:47:23;;;;;;;17.03;6.97;;;;;21.40;99153.00;;;;2071639;28;20225;-65
2023/11/14 00:48:23;;;;;;;11.90;6.47;;;;;21.30;99156.00;;;;2061909;28;20228;-65
2023/11/14 00:49:24;;;;;;;13.27;6.57;;;;;21.40;99153.00;;;;2074122;28;20244;-65
2023/11/14 00:50:24;;;;;;;11.90;5.40;;;;;21.30;99158.00;;;;2072002;28;20214;-65
2023/11/14 00:51:24;;;;;;;15.30;6.43;;;;;21.30;99143.00;;;;2071734;28;20292;-65
2023/11/14 00:52:25;;;;;;;12.33;5.20;;;;;21.30;99159.00;;;;2071960;28;20214;-65
2023/11/14 00:53:25;;;;;;;11.53;5.63;;;;;21.40;99154.00;;;;2061908;28;20218;-65
2023/11/14 00:54:25;;;;;;;12.37;5.80;;;;;21.30;99146.00;;;;2070189;28;20559;-65
2023/11/14 00:55:26;;;;;;;8.10;5.00;;;;;21.30;99149.00;;;;2072054;28;20586;-65
2023/11/14 00:56:26;;;;;;;11.37;5.00;;;;;21.30;99148.00;;;;2071081;28;20264;-65
2023/11/14 00:57:26;;;;;;;13.17;5.37;;;;;21.30;99150.00;;;;2072104;28;20210;-65
2023/11/14 00:58:27;;;;;;;12.40;5.97;;;;;21.40;99147.00;;;;2060211;28;20300;-65
2023/11/14 00:59:28;;;;;;;15.30;5.60;;;;;21.40;99137.00;;;;2063041;28;20219;-65
2023/11/14 01:00:28;;;;;;;11.10;5.38;;;;;21.40;99136.00;;;;2054494;28;20235;-65
2023/11/14 01:01:29;;;;;;;10.70;5.53;;;;;21.40;99137.00;;;;2061877;28;20215;-65
2023/11/14 01:02:29;;;;;;;12.93;6.07;;;;;21.30;99108.00;;;;2064822;28;20215;-65
2023/11/14 01:03:29;;;;;;;13.03;5.20;;;;;21.30;99137.00;;;;2060222;28;20222;-65
2023/11/14 01:04:35;;;;;;;12.63;5.67;;;;;21.30;99138.00;;;;2070794;28;20266;-65
2023/11/14 01:05:36;;;;;;;14.82;6.20;;;;;21.30;99152.00;;;;2071121;28;20297;-65
2023/11/14 01:06:36;;;;;;;14.80;5.60;;;;;21.30;99158.00;;;;2071763;28;20210;-65
2023/11/14 01:07:36;;;;;;;9.93;4.53;;;;;21.30;99143.00;;;;2072147;28;20288;-65
2023/11/14 01:08:37;;;;;;;12.07;6.43;;;;;21.30;99153.00;;;;2061535;28;20214;-65
2023/11/14 01:09:37;;;;;;;11.00;5.17;;;;;21.30;99145.00;;;;2071998;28;20214;-65
2023/11/14 01:10:37;;;;;;;12.00;4.53;;;;;21.30;99160.00;;;;2070996;28;20206;-65
2023/11/14 01:11:38;;;;;;;10.97;4.93;;;;;21.20;99144.00;;;;2070863;28;20952;-65
2023/11/14 01:12:38;;;;;;;12.10;5.57;;;;;21.30;99156.00;;;;2071044;28;20607;-65
2023/11/14 01:13:39;;;;;;;11.57;4.43;;;;;21.30;99141.00;;;;2061459;28;20227;-65
2023/11/14 01:14:40;;;;;;;10.00;4.90;;;;;21.30;99154.00;;;;2070127;28;20214;-65
2023/11/14 01:15:41;;;;;;;11.83;4.83;;;;;21.30;99136.00;;;;2070798;28;20519;-65
2023/11/14 01:16:42;;;;;;;11.75;5.28;;;;;21.30;99133.00;;;;2071796;28;20245;-65
2023/11/14 01:17:42;;;;;;;9.40;5.03;;;;;21.30;99128.00;;;;2065790;28;22789;-65
2023/11/14 01:18:42;;;;;;;11.90;4.57;;;;;21.30;99140.00;;;;2061202;28;20226;-65
2023/11/14 01:19:44;;;;;;;12.33;4.60;;;;;21.20;99155.00;;;;2079284;28;20221;-65
2023/11/14 01:20:45;;;;;;;9.27;3.72;;;;;21.30;99135.00;;;;2072692;28;20241;-65
2023/11/14 01:21:47;;;;;;;12.50;4.33;;;;;21.30;99142.00;;;;2070622;28;20215;-65
2023/11/14 01:22:47;;;;;;;10.70;3.85;;;;;21.30;99108.00;;;;2069508;28;20222;-65
2023/11/14 01:23:47;;;;;;;10.60;4.30;;;;;21.30;99136.00;;;;2062240;28;20300;-65
2023/11/14 01:24:48;;;;;;;16.10;4.60;;;;;21.20;99134.00;;;;2067602;28;20230;-65
2023/11/14 01:25:48;;;;;;;13.83;4.97;;;;;21.20;99136.00;;;;2071493;28;20249;-65
2023/11/14 01:26:48;;;;;;;8.30;3.90;;;;;21.20;99129.00;;;;2071465;28;20233;-65
2023/11/14 01:27:49;;;;;;;9.63;4.70;;;;;21.20;99131.00;;;;2064052;28;20268;-65
2023/11/14 01:28:49;;;;;;;11.83;3.70;;;;;21.30;99140.00;;;;2062278;28;20214;-63
2023/11/14 01:29:50;;;;;;;11.40;4.83;;;;;21.20;99126.00;;;;2071091;28;20222;-63
2023/11/14 01:30:50;;;;;;;9.10;3.67;;;;;21.20;99138.00;;;;2071897;28;20651;-63
2023/11/14 01:31:51;;;;;;;11.53;4.27;;;;;21.20;99140.00;;;;2070875;28;20214;-63
2023/11/14 01:32:51;;;;;;;8.60;4.57;;;;;21.20;99125.00;;;;2071214;28;20241;-63
2023/11/14 01:33:51;;;;;;;8.17;3.87;;;;;21.20;99128.00;;;;2060400;28;20241;-63
2023/11/14 01:34:52;;;;;;;10.67;4.47;;;;;21.20;99124.00;;;;2067515;28;20218;-63
2023/11/14 01:35:52;;;;;;;12.17;3.80;;;;;21.20;99133.00;;;;2071475;28;20257;-63
2023/11/14 01:36:56;;;;;;;10.47;3.70;;;;;21.20;99127.00;;;;2070662;28;20216;-63
2023/11/14 01:37:56;;;;;;;14.23;4.35;;;;;21.20;99135.00;;;;2067114;28;20218;-63
2023/11/14 01:38:56;;;;;;;10.80;3.93;;;;;21.20;99139.00;;;;2066883;28;20218;-63
2023/11/14 01:39:57;;;;;;;11.93;4.10;;;;;21.20;99127.00;;;;2071284;28;20230;-63
2023/11/14 01:40:57;;;;;;;9.53;3.90;;;;;21.20;99144.00;;;;2071749;28;20272;-63
2023/11/14 01:41:58;;;;;;;8.77;3.20;;;;;21.20;99141.00;;;;2070188;28;20253;-63
2023/11/14 01:43:02;;;;;;;11.80;4.30;;;;;21.20;99118.00;;;;2061463;28;20835;-63
2023/11/14 01:44:02;;;;;;;9.63;3.88;;;;;21.20;99141.00;;;;2069950;28;20308;-63
2023/11/14 01:45:03;;;;;;;9.60;3.80;;;;;21.20;99141.00;;;;2070827;28;20608;-63
2023/11/14 01:46:04;;;;;;;11.50;4.07;;;;;21.20;99141.00;;;;2070068;28;20221;-63
2023/11/14 01:47:04;;;;;;;14.90;3.70;;;;;21.20;99144.00;;;;2058198;28;20529;-63
2023/11/14 01:48:04;;;;;;;10.77;3.90;;;;;21.20;99148.00;;;;2050127;28;20285;-63
2023/11/14 01:49:05;;;;;;;15.00;3.70;;;;;21.20;99141.00;;;;2066328;28;20226;-63
2023/11/14 01:50:07;;;;;;;10.50;3.70;;;;;21.20;99135.00;;;;2067840;28;20218;-63
2023/11/14 01:51:07;;;;;;;9.82;3.78;;;;;21.10;99145.00;;;;2062302;28;20800;-63
2023/11/14 01:52:08;;;;;;;8.13;3.67;;;;;21.20;99142.00;;;;2070783;28;20218;-63
2023/11/14 01:53:08;;;;;;;9.57;3.27;;;;;21.20;99103.00;;;;2059813;28;20229;-63
2023/11/14 01:54:08;;;;;;;10.40;3.70;;;;;21.20;99141.00;;;;2068144;28;20922;-63
2023/11/14 01:55:09;;;;;;;11.13;4.00;;;;;21.20;99148.00;;;;2070218;28;20214;-63
2023/11/14 01:56:09;;;;;;;11.50;3.50;;;;;21.10;99133.00;;;;2070334;28;20288;-63
2023/11/14 01:57:11;;;;;;;8.27;3.37;;;;;21.10;99134.00;;;;2071080;28;20217;-63
2023/11/14 01:58:11;;;;;;;10.07;4.10;;;;;21.10;99158.00;;;;2054462;28;20237;-63
2023/11/14 01:59:12;;;;;;;10.93;4.00;;;;;21.10;99153.00;;;;2071620;28;20241;-63
2023/11/14 02:00:12;;;;;;;6.83;3.13;;;;;21.10;99144.00;;;;2068983;28;20257;-63
2023/11/14 02:01:13;;;;;;;11.60;3.87;;;;;21.10;99152.00;;;;2070726;28;20218;-63
2023/11/14 02:02:13;;;;;;;8.70;3.23;;;;;21.10;99123.00;;;;2062547;28;20714;-63
2023/11/14 02:03:14;;;;;;;11.87;3.70;;;;;21.10;99147.00;;;;2052010;28;20219;-63
2023/11/14 02:04:14;;;;;;;10.47;3.30;;;;;21.20;99151.00;;;;2069094;28;20637;-63
2023/11/14 02:05:17;;;;;;;14.07;3.93;;;;;21.10;99139.00;;;;2061925;28;20713;-63
2023/11/14 02:06:17;;;;;;;15.75;4.60;;;;;21.10;99142.00;;;;2070825;28;20222;-63
2023/11/14 02:07:19;;;;;;;10.43;4.27;;;;;21.20;99154.00;;;;2068802;28;20256;-63
2023/11/14 02:08:19;;;;;;;14.02;3.97;;;;;21.10;99165.00;;;;2058751;28;20225;-63
2023/11/14 02:09:21;;;;;;;14.00;4.27;;;;;21.10;99168.00;;;;2070953;28;20665;-63
2023/11/14 02:10:21;;;;;;;8.73;3.38;;;;;21.10;99167.00;;;;2070866;28;20263;-63
2023/11/14 02:11:21;;;;;;;8.97;3.50;;;;;21.10;99173.00;;;;2071518;28;20218;-63
2023/11/14 02:12:21;;;;;;;10.90;4.03;;;;;21.10;99166.00;;;;2071114;28;20320;-63
2023/11/14 02:13:22;;;;;;;10.20;3.60;;;;;21.10;99147.00;;;;2065607;28;20229;-63
2023/11/14 02:14:22;;;;;;;7.40;2.93;;;;;21.10;99191.00;;;;2071823;28;20229;-63
2023/11/14 02:15:23;;;;;;;9.60;3.47;;;;;21.10;99174.00;;;;2069590;28;20241;-63
2023/11/14 02:16:24;;;;;;;9.70;3.80;;;;;21.10;99168.00;;;;2070549;28;20234;-64
2023/11/14 02:17:25;;;;;;;10.68;3.40;;;;;21.20;99167.00;;;;2070288;28;20564;-64
2023/11/14 02:18:25;;;;;;;8.27;3.27;;;;;21.10;99158.00;;;;2062161;28;20221;-64
2023/11/14 02:19:26;;;;;;;9.17;2.83;;;;;21.10;99161.00;;;;2071797;28;20228;-64
2023/11/14 02:20:27;;;;;;;8.90;3.20;;;;;21.10;99162.00;;;;2068308;28;20237;-64
2023/11/14 02:21:28;;;;;;;9.83;3.00;;;;;21.10;99155.00;;;;2069943;28;20214;-64
2023/11/14 02:22:28;;;;;;;12.30;3.67;;;;;21.10;99164.00;;;;2069084;28;21117;-64
2023/11/14 02:23:29;;;;;;;13.30;3.43;;;;;21.10;99162.00;;;;2060854;28;20222;-64
2023/11/14 02:24:29;;;;;;;9.67;3.37;;;;;21.10;99182.00;;;;2060970;28;20609;-64
2023/11/14 02:25:29;;;;;;;12.47;3.47;;;;;21.10;99160.00;;;;2050888;28;20245;-64
2023/11/14 02:26:30;;;;;;;11.57;3.00;;;;;21.10;99160.00;;;;2061734;28;20632;-64
2023/11/14 02:27:30;;;;;;;10.57;3.43;;;;;21.10;99134.00;;;;2069955;28;20218;-64
2023/11/14 02:28:30;;;;;;;8.30;3.13;;;;;21.10;99160.00;;;;2044950;28;20219;-64
2023/11/14 02:29:31;;;;;;;10.37;3.60;;;;;21.10;99171.00;;;;2061114;28;20239;-64
2023/11/14 02:30:31;;;;;;;10.80;3.33;;;;;21.10;99175.00;;;;2062558;28;20221;-64
2023/11/14 02:31:31;;;;;;;8.83;3.20;;;;;21.10;99159.00;;;;2054647;28;20219;-64
2023/11/14 02:32:32;;;;;;;10.20;3.37;;;;;21.10;99158.00;;;;2067109;28;20265;-64
2023/11/14 02:33:37;;;;;;;8.63;3.23;;;;;21.10;99182.00;;;;2061889;28;20249;-64
2023/11/14 02:34:38;;;;;;;7.80;3.20;;;;;21.10;99187.00;;;;2075309;28;20744;-64
2023/11/14 02:35:38;;;;;;;10.47;3.20;;;;;21.10;99185.00;;;;2073027;28;20210;-64
2023/11/14 02:36:39;;;;;;;8.93;3.17;;;;;21.10;99185.00;;;;2069712;28;20703;-64
2023/11/14 02:37:40;;;;;;;9.32;3.17;;;;;21.10;99182.00;;;;2073048;28;20275;-64
2023/11/14 02:38:40;;;;;;;13.33;3.60;;;;;21.10;99176.00;;;;2063558;28;20276;-64
2023/11/14 02:39:40;;;;;;;10.80;3.47;;;;;21.10;99182.00;;;;2069377;28;20218;-64
2023/11/14 02:40:40;;;;;;;9.43;3.20;;;;;21.10;99191.00;;;;2072266;28;20523;-64
2023/11/14 02:41:41;;;;;;;9.33;3.10;;;;;21.00;99204.00;;;;2071417;28;20222;-64
2023/11/14 02:42:45;;;;;;;9.13;3.30;;;;;21.00;99189.00;;;;2072221;28;20237;-64
2023/11/14 02:43:45;;;;;;;8.95;3.25;;;;;21.00;99201.00;;;;2063335;28;20214;-64
2023/11/14 02:44:45;;;;;;;13.47;3.47;;;;;21.00;99193.00;;;;2072622;28;20242;-64
2023/11/14 02:45:46;;;;;;;9.60;2.93;;;;;21.00;99198.00;;;;2073036;28;20288;-64
2023/11/14 02:46:46;;;;;;;14.83;3.40;;;;;21.00;99195.00;;;;2069050;28;20222;-64
2023/11/14 02:47:48;;;;;;;10.70;2.93;;;;;21.00;99189.00;;;;2073171;28;20207;-64
2023/11/14 02:48:49;;;;;;;7.88;2.75;;;;;21.00;99206.00;;;;2062760;28;21361;-64
2023/11/14 02:50:13;;;;;;;9.80;3.30;;;;;21.00;99181.00;;;;2073089;28;20210;-64
2023/11/14 02:51:13;;;;;;;12.82;3.50;;;;;21.00;99188.00;;;;2063219;28;20218;-64
2023/11/14 02:52:13;;;;;;;10.40;3.23;;;;;21.00;99190.00;;;;2065482;28;20226;-64
2023/11/14 02:53:14;;;;;;;8.60;3.07;;;;;21.00;99200.00;;;;2063520;28;20214;-64
2023/11/14 02:54:14;;;;;;;10.47;3.27;;;;;21.10;99197.00;;;;2069271;28;20225;-64
2023/11/14 02:55:15;;;;;;;8.90;2.53;;;;;21.00;99195.00;;;;2073032;28;20210;-64
2023/11/14 02:56:15;;;;;;;8.80;3.10;;;;;21.00;99190.00;;;;2075716;28;20206;-64
2023/11/14 02:57:15;;;;;;;11.50;2.80;;;;;21.00;99185.00;;;;2072039;28;20214;-64
2023/11/14 02:58:16;;;;;;;8.23;3.10;;;;;21.00;99198.00;;;;2062505;28;20237;-64
2023/11/14 02:59:16;;;;;;;10.20;2.67;;;;;21.00;99186.00;;;;2073014;28;20218;-64
2023/11/14 03:00:17;;;;;;;9.50;3.30;;;;;21.00;99187.00;;;;2072888;28;20249;-64
2023/11/14 03:01:18;;;;;;;9.20;2.70;;;;;21.00;99195.00;;;;2072418;28;20713;-64
2023/11/14 03:02:18;;;;;;;8.30;3.10;;;;;21.00;99203.00;;;;2070523;28;20246;-64
2023/11/14 03:03:19;;;;;;;6.27;2.77;;;;;21.00;99195.00;;;;2062282;28;20238;-64
2023/11/14 03:04:19;;;;;;;8.50;3.00;;;;;21.00;99196.00;;;;2072475;28;20649;-64
2023/11/14 03:05:19;;;;;;;11.30;3.00;;;;;21.00;99196.00;;;;2071175;28;20214;-64
2023/11/14 03:06:20;;;;;;;12.17;3.07;;;;;20.90;99202.00;;;;2072996;28;20614;-64
2023/11/14 03:07:21;;;;;;;19.37;3.93;;;;;21.00;99193.00;;;;2072821;28;20869;-64
2023/11/14 03:08:22;;;;;;;9.65;3.35;;;;;21.00;99189.00;;;;2060910;28;20250;-64
2023/11/14 03:09:23;;;;;;;9.95;3.28;;;;;21.00;99199.00;;;;2071565;28;20257;-63
2023/11/14 03:10:23;;;;;;;21.33;3.77;;;;;21.10;99192.00;;;;2070721;28;20226;-63
2023/11/14 03:11:23;;;;;;;17.47;3.40;;;;;21.10;99200.00;;;;2072674;28;20246;-63
2023/11/14 03:12:24;;;;;;;10.03;2.93;;;;;21.20;99190.00;;;;2070116;28;20678;-63
2023/11/14 03:13:24;;;;;;;13.10;3.97;;;;;21.30;99192.00;;;;2059846;28;20732;-63
2023/11/14 03:14:24;;;;;;;12.07;3.17;;;;;21.20;99199.00;;;;2072600;28;20701;-63
2023/11/14 03:15:26;;;;;;;9.40;2.50;;;;;21.20;99202.00;;;;2066766;28;20565;-63
2023/11/14 03:16:26;;;;;;;11.77;3.00;;;;;21.20;99198.00;;;;2071809;28;20238;-63
2023/11/14 03:17:28;;;;;;;7.30;2.70;;;;;21.30;99212.00;;;;2068777;28;20238;-64
2023/11/14 03:18:28;;;;;;;8.25;2.90;;;;;21.30;99216.00;;;;2062304;28;20233;-64
2023/11/14 03:19:29;;;;;;;12.33;3.27;;;;;21.20;99208.00;;;;2072551;28;20280;-64
2023/11/14 03:20:30;;;;;;;9.87;3.00;;;;;21.30;99197.00;;;;2072776;28;20221;-64
2023/11/14 03:21:30;;;;;;;13.07;3.13;;;;;21.30;99212.00;;;;2072813;28;20464;-64
2023/11/14 03:22:30;;;;;;;13.53;3.40;;;;;21.40;99204.00;;;;2071626;28;20210;-64
2023/11/14 03:23:30;;;;;;;11.30;2.80;;;;;21.40;99203.00;;;;2062428;28;20218;-64
2023/11/14 03:24:31;;;;;;;10.77;3.00;;;;;21.40;99203.00;;;;2071602;28;20229;-64
2023/11/14 03:25:31;;;;;;;11.80;3.00;;;;;21.40;99207.00;;;;2072544;28;20222;-64
2023/11/14 03:26:32;;;;;;;9.63;2.73;;;;;21.40;99207.00;;;;2072669;28;20222;-64
2023/11/14 03:27:32;;;;;;;8.37;3.00;;;;;21.30;99225.00;;;;2070601;28;20218;-64
2023/11/14 03:28:33;;;;;;;17.37;3.00;;;;;21.30;99207.00;;;;2063147;28;20218;-64
2023/11/14 03:29:33;;;;;;;9.53;2.70;;;;;21.20;99211.00;;;;2071974;28;20642;-64
2023/11/14 03:30:33;;;;;;;12.27;3.27;;;;;21.20;99210.00;;;;2073024;28;20210;-64
2023/11/14 03:31:34;;;;;;;10.67;2.73;;;;;21.20;99220.00;;;;2072274;28;20261;-64
2023/11/14 03:32:34;;;;;;;10.20;3.20;;;;;21.20;99222.00;;;;2072692;28;20245;-64
2023/11/14 03:33:35;;;;;;;13.10;3.60;;;;;21.20;99216.00;;;;2061001;28;20276;-64
2023/11/14 03:34:35;;;;;;;8.93;3.13;;;;;21.20;99207.00;;;;2071886;28;20225;-64
2023/11/14 03:35:37;;;;;;;12.30;3.33;;;;;21.20;99220.00;;;;2072609;28;20222;-64
2023/11/14 03:36:37;;;;;;;8.80;2.92;;;;;21.20;99213.00;;;;2066023;28;20352;-64
2023/11/14 03:37:38;;;;;;;10.43;3.00;;;;;21.20;99217.00;;;;2069471;28;20226;-64
2023/11/14 03:38:38;;;;;;;10.60;3.13;;;;;21.20;99213.00;;;;2053872;28;20252;-64
2023/11/14 03:39:42;;;;;;;11.93;2.90;;;;;21.10;99166.00;;;;2071716;28;20693;-64
2023/11/14 03:40:42;;;;;;;11.18;2.78;;;;;21.10;99200.00;;;;2072180;28;20221;-64
2023/11/14 03:41:42;;;;;;;8.13;2.40;;;;;21.10;99218.00;;;;2071820;28;20237;-64
2023/11/14 03:42:43;;;;;;;10.00;2.70;;;;;21.10;99222.00;;;;2066354;28;20221;-64
2023/11/14 03:43:43;;;;;;;11.87;2.97;;;;;21.00;99223.00;;;;2062124;28;20222;-64
2023/11/14 03:44:44;;;;;;;10.73;3.00;;;;;21.10;99222.00;;;;2071721;28;20232;-64
2023/11/14 03:45:44;;;;;;;9.37;3.07;;;;;21.10;99214.00;;;;2070820;28;20215;-64
2023/11/14 03:46:44;;;;;;;11.10;3.27;;;;;21.20;99213.00;;;;2072205;28;20241;-64
2023/11/14 03:47:45;;;;;;;10.20;3.17;;;;;21.10;99215.00;;;;2072476;28;20236;-64
2023/11/14 03:48:45;;;;;;;10.77;3.30;;;;;21.10;99214.00;;;;2062370;28;20210;-64
2023/11/14 03:49:46;;;;;;;11.63;4.60;;;;;21.10;99214.00;;;;2067733;28;20221;-64
2023/11/14 03:50:46;;;;;;;16.50;6.87;;;;;21.10;99218.00;;;;2071569;28;20210;-64
2023/11/14 03:51:46;;;;;;;18.13;9.00;;;;;21.10;99217.00;;;;2072638;28;20264;-64
2023/11/14 03:52:46;;;;;;;20.27;10.43;;;;;21.10;99227.00;;;;2071755;28;20210;-64
2023/11/14 03:53:49;;;;;;;22.47;10.80;;;;;21.10;99227.00;;;;2062746;28;20302;-64
2023/11/14 03:54:49;;;;;;;20.95;11.77;;;;;21.10;99212.00;;;;2070390;28;20245;-64
2023/11/14 03:55:50;;;;;;;22.60;14.10;;;;;21.10;99238.00;;;;2070758;28;20685;-64
2023/11/14 03:56:50;;;;;;;26.30;15.37;;;;;21.10;99239.00;;;;2063719;28;20702;-64
2023/11/14 03:57:50;;;;;;;31.93;17.33;;;;;21.00;99230.00;;;;2069894;28;20761;-64
2023/11/14 03:58:51;;;;;;;29.17;17.30;;;;;21.00;99228.00;;;;2062243;28;20237;-64
2023/11/14 03:59:51;;;;;;;30.70;16.27;;;;;21.00;99230.00;;;;2071591;28;20604;-64
2023/11/14 04:00:51;;;;;;;25.33;15.53;;;;;21.00;99220.00;;;;2072067;28;20214;-64
2023/11/14 04:01:52;;;;;;;30.90;16.60;;;;;21.00;99224.00;;;;2070546;28;20210;-64
2023/11/14 04:02:52;;;;;;;28.40;16.30;;;;;21.10;99231.00;;;;2071530;28;20210;-64
2023/11/14 04:03:53;;;;;;;26.40;16.53;;;;;21.10;99226.00;;;;2062665;28;20222;-64
2023/11/14 04:04:53;;;;;;;27.70;14.70;;;;;21.10;99222.00;;;;2071360;28;20218;-64
2023/11/14 04:05:53;;;;;;;24.07;14.67;;;;;21.00;99216.00;;;;2072372;28;20221;-64
2023/11/14 04:06:54;;;;;;;24.70;14.30;;;;;21.00;99210.00;;;;2072201;28;20214;-64
2023/11/14 04:07:55;;;;;;;23.03;13.30;;;;;21.00;99222.00;;;;2071817;28;20685;-64
2023/11/14 04:08:55;;;;;;;23.23;13.02;;;;;21.00;99218.00;;;;2062360;28;20234;-64
2023/11/14 04:09:56;;;;;;;21.10;12.50;;;;;21.00;99205.00;;;;2071305;28;20219;-64
2023/11/14 04:10:57;;;;;;;22.57;12.70;;;;;21.00;99218.00;;;;2071913;28;20232;-63
2023/11/14 04:11:57;;;;;;;22.53;12.20;;;;;21.00;99235.00;;;;2070743;28;20449;-62
2023/11/14 04:12:57;;;;;;;25.27;14.20;;;;;21.00;99224.00;;;;2064048;28;20202;-62
2023/11/14 04:13:58;;;;;;;18.70;11.20;;;;;21.00;99225.00;;;;2070867;28;20218;-62
2023/11/14 04:14:58;;;;;;;20.77;11.80;;;;;21.00;99233.00;;;;2076275;28;20696;-62
2023/11/14 04:15:59;;;;;;;15.53;10.80;;;;;21.00;99236.00;;;;2070029;28;20218;-62
2023/11/14 04:17:00;;;;;;;19.70;10.43;;;;;21.00;99209.00;;;;2069113;28;20305;-62
2023/11/14 04:18:00;;;;;;;19.07;11.37;;;;;20.90;99223.00;;;;2062719;28;20225;-62
2023/11/14 04:19:00;;;;;;;21.43;10.20;;;;;20.90;99226.00;;;;2069696;28;20205;-62
2023/11/14 04:20:01;;;;;;;20.23;10.57;;;;;20.90;99213.00;;;;2066714;28;20297;-62
2023/11/14 04:21:02;;;;;;;19.00;10.93;;;;;20.90;99227.00;;;;2072290;28;20214;-62
2023/11/14 04:22:03;;;;;;;21.58;10.23;;;;;20.90;99223.00;;;;2070496;28;20214;-62
2023/11/14 04:23:03;;;;;;;17.50;9.60;;;;;20.90;99235.00;;;;2061642;28;20214;-62
2023/11/14 04:24:05;;;;;;;15.50;8.43;;;;;20.90;99231.00;;;;2071557;28;20755;-62
2023/11/14 04:25:06;;;;;;;18.65;9.32;;;;;20.90;99232.00;;;;2070745;28;20238;-62
2023/11/14 04:26:06;;;;;;;16.00;8.33;;;;;20.90;99233.00;;;;2072486;28;20675;-62
2023/11/14 04:27:06;;;;;;;17.50;8.73;;;;;20.90;99222.00;;;;2077345;28;20650;-62
2023/11/14 04:28:08;;;;;;;15.57;8.10;;;;;20.90;99223.00;;;;2062711;28;20225;-62
2023/11/14 04:29:09;;;;;;;17.75;8.35;;;;;20.90;99237.00;;;;2071666;28;20218;-62
2023/11/14 04:30:10;;;;;;;14.10;8.03;;;;;20.90;99229.00;;;;2069911;28;20218;-62
2023/11/14 04:31:10;;;;;;;17.65;7.40;;;;;20.90;99223.00;;;;2071486;28;20537;-62
2023/11/14 04:32:11;;;;;;;13.40;7.40;;;;;20.90;99213.00;;;;2072336;28;20218;-62
2023/11/14 04:33:11;;;;;;;16.33;8.03;;;;;20.90;99236.00;;;;2061264;28;20237;-62
2023/11/14 04:34:11;;;;;;;17.33;7.93;;;;;20.90;99235.00;;;;2067937;28;20218;-62
2023/11/14 04:35:12;;;;;;;15.63;7.90;;;;;20.80;99226.00;;;;2071836;28;20257;-62
2023/11/14 04:36:13;;;;;;;18.77;7.90;;;;;20.80;99230.00;;;;2071236;28;20252;-62
2023/11/14 04:37:14;;;;;;;13.73;6.95;;;;;20.90;99239.00;;;;2071291;28;20214;-62
2023/11/14 04:38:14;;;;;;;16.90;7.47;;;;;20.80;99230.00;;;;2060773;28;20252;-62
2023/11/14 04:39:14;;;;;;;12.90;6.43;;;;;20.80;99238.00;;;;2072003;28;20681;-62
2023/11/14 04:40:15;;;;;;;14.37;6.60;;;;;20.80;99234.00;;;;2070765;28;20696;-62
2023/11/14 04:41:16;;;;;;;12.80;6.50;;;;;20.80;99223.00;;;;2075487;28;20296;-62
2023/11/14 04:42:17;;;;;;;11.82;5.95;;;;;20.80;99238.00;;;;2072272;28;20257;-62
2023/11/14 04:43:17;;;;;;;18.07;7.17;;;;;20.80;99213.00;;;;2060998;28;20233;-62
2023/11/14 04:44:18;;;;;;;15.33;7.17;;;;;20.90;99240.00;;;;2071992;28;20214;-62
2023/11/14 04:45:18;;;;;;;16.20;7.20;;;;;20.80;99244.00;;;;2071112;28;20214;-62
2023/11/14 04:46:19;;;;;;;12.60;6.03;;;;;20.80;99214.00;;;;2072188;28;20695;-62
2023/11/14 04:47:20;;;;;;;13.10;5.83;;;;;20.80;99226.00;;;;2070185;28;20222;-62
2023/11/14 04:48:20;;;;;;;14.10;5.70;;;;;20.80;99226.00;;;;2061823;28;20222;-62
2023/11/14 04:49:20;;;;;;;10.67;4.73;;;;;20.90;99225.00;;;;2070386;28;20476;-62
2023/11/14 04:50:21;;;;;;;12.63;6.10;;;;;20.90;99220.00;;;;2071341;28;20226;-62
2023/11/14 04:51:21;;;;;;;13.37;6.27;;;;;20.80;99226.00;;;;2072150;28;20230;-62
2023/11/14 04:52:21;;;;;;;15.20;5.50;;;;;20.80;99228.00;;;;2071592;28;20246;-62
2023/11/14 04:53:22;;;;;;;10.87;5.47;;;;;20.80;99219.00;;;;2061851;28;20237;-62
2023/11/14 04:54:22;;;;;;;13.07;5.90;;;;;20.90;99235.00;;;;2072170;28;20222;-62
2023/11/14 04:55:23;;;;;;;12.17;5.53;;;;;20.90;99248.00;;;;2065946;28;20257;-62
2023/11/14 04:56:23;;;;;;;13.73;5.80;;;;;20.80;99220.00;;;;2064343;28;20242;-62
2023/11/14 04:57:23;;;;;;;13.80;5.73;;;;;20.80;99223.00;;;;2065250;28;20229;-62
2023/11/14 04:58:23;;;;;;;11.33;4.93;;;;;20.80;99234.00;;;;2060214;28;20234;-62
2023/11/14 04:59:24;;;;;;;10.90;5.00;;;;;20.80;99236.00;;;;2072035;28;20242;-62
2023/11/14 05:00:24;;;;;;;13.27;5.80;;;;;20.80;99240.00;;;;2071396;28;20269;-62